Portada
METAR-TAF:

METAR-TAF

Aeropuertos :

Tamanrasset, Argelia

latitud: 22-49N, longitud: 005-28E, altitud: 1377 m

Observación

El informe se hizo hace 11 minutos, a las 00:00 UTC
Viento 4 kt del este
Temperatura 20°C
Humedad 28%
Presión 1021 hPa
Visibilidad 10 km o más
sin nubes por debajo de 1500 m y sin presencia de cumulonimbus.

METAR: DAAT 180000Z 10004KT CAVOK 20/01 Q1021

Hora: 01:11 (00:11 UTC)

Pronóstico

El informe se hizo hace 1 hora y 11 minutos, a las 23:00 UTC
Pronóstico válido del 18 a las 00 UTC al 18 a las 24 UTC
Viento 2 kt con dirección variable
Visibilidad 10 km o más
sin nubes por debajo de 1500 m y sin presencia de cumulonimbus.

TAF: DAAT 172300Z 1800/1824 VRB02KT CAVOK

Observaciones y pronósticos meteorológicos de más de 4000 aeropuertos (mensajes METAR y TAF).

Los puntos amarillos y rojos representan las estaciones disponibles.

Ponga el ratón en el punto deseado para ver el nombre de la estación.

Haga clic para ver las observaciones y los pronósticos meteorológicos.

Para cambiar el mapa : haga clic en los botones verdes con una cruz de color negro para hacer un zoom, en el botón verde con un guión para alejar o en las flechas verdes para mapas adyacentes.


METAR-TAF: